sensor_id;sensor_type;location;lat;lon;timestamp;pressure;altitude;pressure_sealevel;temperature;humidity
86173;BME280;76822;46.880;8.642;2024-03-29T00:03:07;94663.59;;;13.97;nan
86173;BME280;76822;46.880;8.642;2024-03-29T00:06:27;94647.91;;;13.76;nan
86173;BME280;76822;46.880;8.642;2024-03-29T00:09:48;94634.53;;;13.79;nan
86173;BME280;76822;46.880;8.642;2024-03-29T00:13:08;94670.88;;;14.02;nan
86173;BME280;76822;46.880;8.642;2024-03-29T00:16:28;94659.84;;;14.12;nan
86173;BME280;76822;46.880;8.642;2024-03-29T00:19:49;94646.13;;;14.03;nan
86173;BME280;76822;46.880;8.642;2024-03-29T00:23:09;94628.69;;;14.10;nan
86173;BME280;76822;46.880;8.642;2024-03-29T00:26:30;94620.28;;;14.11;nan
86173;BME280;76822;46.880;8.642;2024-03-29T00:29:50;94632.66;;;14.17;nan
86173;BME280;76822;46.880;8.642;2024-03-29T00:33:13;94616.91;;;14.19;nan
86173;BME280;76822;46.880;8.642;2024-03-29T00:36:33;94644.66;;;14.30;nan
86173;BME280;76822;46.880;8.642;2024-03-29T00:39:53;94581.84;;;14.55;nan
86173;BME280;76822;46.880;8.642;2024-03-29T00:43:14;94591.41;;;14.53;nan
86173;BME280;76822;46.880;8.642;2024-03-29T00:46:34;94612.94;;;14.12;nan
86173;BME280;76822;46.880;8.642;2024-03-29T00:49:54;94603.91;;;14.16;nan
86173;BME280;76822;46.880;8.642;2024-03-29T00:53:15;94561.63;;;14.29;nan
86173;BME280;76822;46.880;8.642;2024-03-29T00:56:35;94571.38;;;14.49;nan
86173;BME280;76822;46.880;8.642;2024-03-29T00:59:55;94570.22;;;14.36;nan
86173;BME280;76822;46.880;8.642;2024-03-29T01:03:18;94578.94;;;14.33;nan
86173;BME280;76822;46.880;8.642;2024-03-29T01:06:39;94563.22;;;14.30;nan
86173;BME280;76822;46.880;8.642;2024-03-29T01:10:03;94614.50;;;14.31;nan
86173;BME280;76822;46.880;8.642;2024-03-29T01:13:23;94583.28;;;14.15;nan
86173;BME280;76822;46.880;8.642;2024-03-29T01:16:44;94595.75;;;14.35;nan
86173;BME280;76822;46.880;8.642;2024-03-29T01:20:04;94596.19;;;14.23;nan
86173;BME280;76822;46.880;8.642;2024-03-29T01:23:25;94617.47;;;14.16;nan
86173;BME280;76822;46.880;8.642;2024-03-29T01:26:45;94602.28;;;14.15;nan
86173;BME280;76822;46.880;8.642;2024-03-29T01:30:06;94627.44;;;14.39;nan
86173;BME280;76822;46.880;8.642;2024-03-29T01:33:27;94616.34;;;14.36;nan
86173;BME280;76822;46.880;8.642;2024-03-29T01:36:52;94611.97;;;14.40;nan
86173;BME280;76822;46.880;8.642;2024-03-29T01:40:12;94581.50;;;14.24;nan
86173;BME280;76822;46.880;8.642;2024-03-29T01:43:32;94654.06;;;14.37;nan
86173;BME280;76822;46.880;8.642;2024-03-29T01:46:53;94564.81;;;14.17;nan
86173;BME280;76822;46.880;8.642;2024-03-29T01:50:13;94604.19;;;14.33;nan
86173;BME280;76822;46.880;8.642;2024-03-29T01:53:34;94607.44;;;14.17;nan
86173;BME280;76822;46.880;8.642;2024-03-29T01:56:54;94561.41;;;14.25;nan
86173;BME280;76822;46.880;8.642;2024-03-29T02:00:16;94621.44;;;14.43;nan
86173;BME280;76822;46.880;8.642;2024-03-29T02:03:37;94616.22;;;14.27;nan
86173;BME280;76822;46.880;8.642;2024-03-29T02:06:57;94615.28;;;14.18;nan
86173;BME280;76822;46.880;8.642;2024-03-29T02:10:17;94589.75;;;14.19;nan
86173;BME280;76822;46.880;8.642;2024-03-29T02:13:39;94598.44;;;14.35;nan
86173;BME280;76822;46.880;8.642;2024-03-29T02:17:00;94585.16;;;14.33;nan
86173;BME280;76822;46.880;8.642;2024-03-29T02:20:22;94562.50;;;14.43;nan
86173;BME280;76822;46.880;8.642;2024-03-29T02:23:47;94610.56;;;14.43;nan
86173;BME280;76822;46.880;8.642;2024-03-29T02:27:07;94578.41;;;14.50;nan
86173;BME280;76822;46.880;8.642;2024-03-29T02:30:28;94593.72;;;14.46;nan
86173;BME280;76822;46.880;8.642;2024-03-29T02:33:50;94618.94;;;14.27;nan
86173;BME280;76822;46.880;8.642;2024-03-29T02:37:10;94574.19;;;14.25;nan
86173;BME280;76822;46.880;8.642;2024-03-29T02:40:31;94615.28;;;14.18;nan
86173;BME280;76822;46.880;8.642;2024-03-29T02:43:51;94594.38;;;14.19;nan
86173;BME280;76822;46.880;8.642;2024-03-29T02:47:11;94643.84;;;14.29;nan
86173;BME280;76822;46.880;8.642;2024-03-29T02:50:32;94664.94;;;14.19;nan
86173;BME280;76822;46.880;8.642;2024-03-29T02:53:52;94629.13;;;14.17;nan
86173;BME280;76822;46.880;8.642;2024-03-29T02:57:13;94609.41;;;14.11;nan
86173;BME280;76822;46.880;8.642;2024-03-29T03:00:33;94650.91;;;14.30;nan
86173;BME280;76822;46.880;8.642;2024-03-29T03:03:54;94621.72;;;14.22;nan
86173;BME280;76822;46.880;8.642;2024-03-29T03:07:14;94666.09;;;14.13;nan
86173;BME280;76822;46.880;8.642;2024-03-29T03:10:53;94654.59;;;14.39;nan
86173;BME280;76822;46.880;8.642;2024-03-29T03:14:16;94631.09;;;14.30;nan
86173;BME280;76822;46.880;8.642;2024-03-29T03:17:36;94646.09;;;14.27;nan
86173;BME280;76822;46.880;8.642;2024-03-29T03:20:57;94668.16;;;14.21;nan
86173;BME280;76822;46.880;8.642;2024-03-29T03:24:18;94636.69;;;14.38;nan
86173;BME280;76822;46.880;8.642;2024-03-29T03:27:38;94660.69;;;14.50;nan
86173;BME280;76822;46.880;8.642;2024-03-29T03:30:58;94685.09;;;14.31;nan
86173;BME280;76822;46.880;8.642;2024-03-29T03:34:19;94642.94;;;14.39;nan
86173;BME280;76822;46.880;8.642;2024-03-29T03:37:39;94696.34;;;14.25;nan
86173;BME280;76822;46.880;8.642;2024-03-29T03:41:00;94649.94;;;14.21;nan
86173;BME280;76822;46.880;8.642;2024-03-29T03:44:20;94726.88;;;14.35;nan
86173;BME280;76822;46.880;8.642;2024-03-29T03:47:42;94658.56;;;14.28;nan
86173;BME280;76822;46.880;8.642;2024-03-29T03:51:02;94725.38;;;14.24;nan
86173;BME280;76822;46.880;8.642;2024-03-29T03:54:22;94688.56;;;14.18;nan
86173;BME280;76822;46.880;8.642;2024-03-29T03:57:43;94672.03;;;14.15;nan
86173;BME280;76822;46.880;8.642;2024-03-29T04:01:04;94674.94;;;14.42;nan
86173;BME280;76822;46.880;8.642;2024-03-29T04:04:25;94720.03;;;14.19;nan
86173;BME280;76822;46.880;8.642;2024-03-29T04:07:46;94697.41;;;14.05;nan
86173;BME280;76822;46.880;8.642;2024-03-29T04:11:06;94654.44;;;14.12;nan
86173;BME280;76822;46.880;8.642;2024-03-29T04:14:26;94695.91;;;14.36;nan
86173;BME280;76822;46.880;8.642;2024-03-29T04:17:47;94661.41;;;14.18;nan
86173;BME280;76822;46.880;8.642;2024-03-29T04:21:07;94729.59;;;14.35;nan
86173;BME280;76822;46.880;8.642;2024-03-29T04:24:28;94691.28;;;14.18;nan
86173;BME280;76822;46.880;8.642;2024-03-29T04:27:48;94666.75;;;14.23;nan
86173;BME280;76822;46.880;8.642;2024-03-29T04:31:08;94667.94;;;14.17;nan
86173;BME280;76822;46.880;8.642;2024-03-29T04:34:29;94684.81;;;14.14;nan
86173;BME280;76822;46.880;8.642;2024-03-29T04:37:49;94697.13;;;14.25;nan
86173;BME280;76822;46.880;8.642;2024-03-29T04:41:10;94665.81;;;14.33;nan
86173;BME280;76822;46.880;8.642;2024-03-29T04:44:30;94687.75;;;14.36;nan
86173;BME280;76822;46.880;8.642;2024-03-29T04:47:50;94726.47;;;14.23;nan
86173;BME280;76822;46.880;8.642;2024-03-29T04:51:11;94718.16;;;14.38;nan
86173;BME280;76822;46.880;8.642;2024-03-29T04:54:32;94702.03;;;14.23;nan
86173;BME280;76822;46.880;8.642;2024-03-29T04:57:53;94691.13;;;14.28;nan
86173;BME280;76822;46.880;8.642;2024-03-29T05:01:13;94730.06;;;14.43;nan
86173;BME280;76822;46.880;8.642;2024-03-29T05:04:34;94730.16;;;14.32;nan
86173;BME280;76822;46.880;8.642;2024-03-29T05:07:54;94727.53;;;14.46;nan
86173;BME280;76822;46.880;8.642;2024-03-29T05:11:14;94695.22;;;14.63;nan
86173;BME280;76822;46.880;8.642;2024-03-29T05:14:35;94706.16;;;14.77;nan
86173;BME280;76822;46.880;8.642;2024-03-29T05:17:55;94738.53;;;14.55;nan
86173;BME280;76822;46.880;8.642;2024-03-29T05:21:16;94761.69;;;14.52;nan
86173;BME280;76822;46.880;8.642;2024-03-29T05:24:36;94815.78;;;14.49;nan
86173;BME280;76822;46.880;8.642;2024-03-29T05:27:57;94731.78;;;14.33;nan
86173;BME280;76822;46.880;8.642;2024-03-29T05:31:17;94765.38;;;14.37;nan
86173;BME280;76822;46.880;8.642;2024-03-29T05:34:38;94812.91;;;14.40;nan
86173;BME280;76822;46.880;8.642;2024-03-29T05:37:59;94773.25;;;14.39;nan
86173;BME280;76822;46.880;8.642;2024-03-29T05:41:19;94712.28;;;14.50;nan
86173;BME280;76822;46.880;8.642;2024-03-29T05:44:39;94770.69;;;14.48;nan
86173;BME280;76822;46.880;8.642;2024-03-29T05:48:00;94787.38;;;14.79;nan
86173;BME280;76822;46.880;8.642;2024-03-29T05:51:20;94740.44;;;14.35;nan
86173;BME280;76822;46.880;8.642;2024-03-29T05:54:42;94825.28;;;14.70;nan
86173;BME280;76822;46.880;8.642;2024-03-29T05:58:03;94738.41;;;14.65;nan
86173;BME280;76822;46.880;8.642;2024-03-29T06:01:23;94777.84;;;14.62;nan
86173;BME280;76822;46.880;8.642;2024-03-29T06:04:44;94819.97;;;14.60;nan
86173;BME280;76822;46.880;8.642;2024-03-29T06:08:07;94783.91;;;14.73;nan
86173;BME280;76822;46.880;8.642;2024-03-29T06:11:28;94801.53;;;14.57;nan
86173;BME280;76822;46.880;8.642;2024-03-29T06:14:48;94817.97;;;14.65;nan
86173;BME280;76822;46.880;8.642;2024-03-29T06:18:27;94818.44;;;14.91;nan
86173;BME280;76822;46.880;8.642;2024-03-29T06:21:48;94813.38;;;14.85;nan
86173;BME280;76822;46.880;8.642;2024-03-29T06:25:08;94780.91;;;14.93;nan
86173;BME280;76822;46.880;8.642;2024-03-29T06:28:29;94877.72;;;15.08;nan
86173;BME280;76822;46.880;8.642;2024-03-29T06:31:49;94772.31;;;15.05;nan
86173;BME280;76822;46.880;8.642;2024-03-29T06:35:10;94802.25;;;15.19;nan
86173;BME280;76822;46.880;8.642;2024-03-29T06:38:31;94812.63;;;14.98;nan
86173;BME280;76822;46.880;8.642;2024-03-29T06:41:52;94793.53;;;15.35;nan
86173;BME280;76822;46.880;8.642;2024-03-29T06:45:12;94818.03;;;15.68;nan
86173;BME280;76822;46.880;8.642;2024-03-29T06:48:32;94802.50;;;15.55;nan
86173;BME280;76822;46.880;8.642;2024-03-29T06:51:53;94765.53;;;15.67;nan
86173;BME280;76822;46.880;8.642;2024-03-29T06:55:14;94768.06;;;15.64;nan
86173;BME280;76822;46.880;8.642;2024-03-29T06:58:34;94786.38;;;15.58;nan
86173;BME280;76822;46.880;8.642;2024-03-29T07:01:54;94665.38;;;15.69;nan
86173;BME280;76822;46.880;8.642;2024-03-29T07:05:15;94700.44;;;15.98;nan
86173;BME280;76822;46.880;8.642;2024-03-29T07:08:35;94649.88;;;16.19;nan
86173;BME280;76822;46.880;8.642;2024-03-29T07:11:56;94731.06;;;16.31;nan
86173;BME280;76822;46.880;8.642;2024-03-29T07:15:17;94658.78;;;16.47;nan
86173;BME280;76822;46.880;8.642;2024-03-29T07:18:38;94717.09;;;16.46;nan
86173;BME280;76822;46.880;8.642;2024-03-29T07:21:58;94696.63;;;16.35;nan
86173;BME280;76822;46.880;8.642;2024-03-29T07:25:18;94745.75;;;16.44;nan
86173;BME280;76822;46.880;8.642;2024-03-29T07:28:39;94658.94;;;16.64;nan
86173;BME280;76822;46.880;8.642;2024-03-29T07:32:00;94648.53;;;16.67;nan
86173;BME280;76822;46.880;8.642;2024-03-29T07:35:21;94588.81;;;16.79;nan
86173;BME280;76822;46.880;8.642;2024-03-29T07:38:41;94612.69;;;16.73;nan
86173;BME280;76822;46.880;8.642;2024-03-29T07:42:02;94652.84;;;16.68;nan
86173;BME280;76822;46.880;8.642;2024-03-29T07:45:22;94617.59;;;16.49;nan
86173;BME280;76822;46.880;8.642;2024-03-29T07:48:42;94639.56;;;16.66;nan
86173;BME280;76822;46.880;8.642;2024-03-29T07:52:03;94633.16;;;16.93;nan
86173;BME280;76822;46.880;8.642;2024-03-29T07:55:25;94640.16;;;16.85;nan
86173;BME280;76822;46.880;8.642;2024-03-29T07:58:45;94676.84;;;16.79;nan
86173;BME280;76822;46.880;8.642;2024-03-29T08:02:06;94601.69;;;16.87;nan
86173;BME280;76822;46.880;8.642;2024-03-29T08:05:27;94594.72;;;17.34;nan
86173;BME280;76822;46.880;8.642;2024-03-29T08:08:48;94703.44;;;17.27;nan
86173;BME280;76822;46.880;8.642;2024-03-29T08:12:08;94729.03;;;17.09;nan
86173;BME280;76822;46.880;8.642;2024-03-29T08:15:29;94712.06;;;17.20;nan
86173;BME280;76822;46.880;8.642;2024-03-29T08:18:49;94752.34;;;17.46;nan
86173;BME280;76822;46.880;8.642;2024-03-29T08:22:10;94708.28;;;17.30;nan
86173;BME280;76822;46.880;8.642;2024-03-29T08:25:34;94628.94;;;17.49;nan
86173;BME280;76822;46.880;8.642;2024-03-29T08:28:54;94729.00;;;17.31;nan
86173;BME280;76822;46.880;8.642;2024-03-29T08:32:15;94740.03;;;17.26;nan
86173;BME280;76822;46.880;8.642;2024-03-29T08:35:35;94616.13;;;17.58;nan
86173;BME280;76822;46.880;8.642;2024-03-29T08:38:55;94672.25;;;17.72;nan
86173;BME280;76822;46.880;8.642;2024-03-29T08:42:16;94701.44;;;17.63;nan
86173;BME280;76822;46.880;8.642;2024-03-29T08:45:37;94675.19;;;17.85;nan
86173;BME280;76822;46.880;8.642;2024-03-29T08:49:00;94685.59;;;17.74;nan
86173;BME280;76822;46.880;8.642;2024-03-29T08:52:21;94715.56;;;18.05;nan
86173;BME280;76822;46.880;8.642;2024-03-29T08:55:42;94637.84;;;18.28;nan
86173;BME280;76822;46.880;8.642;2024-03-29T08:59:05;94632.44;;;18.71;nan
86173;BME280;76822;46.880;8.642;2024-03-29T09:02:27;94685.94;;;18.89;nan
86173;BME280;76822;46.880;8.642;2024-03-29T09:05:48;94672.59;;;18.45;nan
86173;BME280;76822;46.880;8.642;2024-03-29T09:09:08;94710.47;;;18.38;nan
86173;BME280;76822;46.880;8.642;2024-03-29T09:12:30;94721.03;;;18.13;nan
86173;BME280;76822;46.880;8.642;2024-03-29T09:15:50;94787.59;;;18.18;nan
86173;BME280;76822;46.880;8.642;2024-03-29T09:19:10;94734.63;;;17.96;nan
86173;BME280;76822;46.880;8.642;2024-03-29T09:22:31;94731.53;;;17.81;nan
86173;BME280;76822;46.880;8.642;2024-03-29T09:39:14;66315.34;;;24.34;45.40
86173;BME280;76822;46.880;8.642;2024-03-29T09:59:19;94776.50;;;19.31;nan
86173;BME280;76822;46.880;8.642;2024-03-29T10:02:39;94759.47;;;19.51;nan
86173;BME280;76822;46.880;8.642;2024-03-29T10:06:01;94798.88;;;19.76;nan
86173;BME280;76822;46.880;8.642;2024-03-29T10:09:23;94742.72;;;19.27;nan
86173;BME280;76822;46.880;8.642;2024-03-29T10:12:47;94788.44;;;19.18;nan
86173;BME280;76822;46.880;8.642;2024-03-29T10:16:09;94731.28;;;19.51;nan
86173;BME280;76822;46.880;8.642;2024-03-29T10:19:31;94785.03;;;20.19;nan
86173;BME280;76822;46.880;8.642;2024-03-29T10:22:51;94712.00;;;20.23;nan
86173;BME280;76822;46.880;8.642;2024-03-29T10:26:12;94799.78;;;20.44;nan
86173;BME280;76822;46.880;8.642;2024-03-29T10:29:33;94800.72;;;20.01;nan
86173;BME280;76822;46.880;8.642;2024-03-29T10:32:56;94719.56;;;21.39;nan
86173;BME280;76822;46.880;8.642;2024-03-29T10:36:17;94704.66;;;20.65;nan
86173;BME280;76822;46.880;8.642;2024-03-29T10:39:42;94774.63;;;20.33;nan
86173;BME280;76822;46.880;8.642;2024-03-29T10:43:03;94768.00;;;21.23;nan
86173;BME280;76822;46.880;8.642;2024-03-29T10:46:27;94787.41;;;21.38;nan
86173;BME280;76822;46.880;8.642;2024-03-29T10:49:50;94753.50;;;20.93;nan
86173;BME280;76822;46.880;8.642;2024-03-29T10:53:12;94776.19;;;20.81;nan
86173;BME280;76822;46.880;8.642;2024-03-29T10:56:34;94732.56;;;22.81;nan
86173;BME280;76822;46.880;8.642;2024-03-29T11:23:57;66309.88;;;24.34;45.41
86173;BME280;76822;46.880;8.642;2024-03-29T11:27:22;94783.63;;;20.13;nan
86173;BME280;76822;46.880;8.642;2024-03-29T11:30:45;94766.69;;;22.07;nan
86173;BME280;76822;46.880;8.642;2024-03-29T11:34:08;94749.22;;;21.04;nan
86173;BME280;76822;46.880;8.642;2024-03-29T11:37:30;94654.28;;;20.91;nan
86173;BME280;76822;46.880;8.642;2024-03-29T11:41:01;94754.31;;;20.93;nan
86173;BME280;76822;46.880;8.642;2024-03-29T11:44:23;94717.66;;;20.18;nan
86173;BME280;76822;46.880;8.642;2024-03-29T11:47:43;94799.66;;;19.85;nan
86173;BME280;76822;46.880;8.642;2024-03-29T11:51:05;94745.50;;;20.29;nan
86173;BME280;76822;46.880;8.642;2024-03-29T11:54:26;94743.22;;;20.31;nan
86173;BME280;76822;46.880;8.642;2024-03-29T11:57:46;94707.88;;;20.88;nan
86173;BME280;76822;46.880;8.642;2024-03-29T12:01:07;94749.00;;;20.00;nan
86173;BME280;76822;46.880;8.642;2024-03-29T12:04:34;94724.31;;;20.47;nan
86173;BME280;76822;46.880;8.642;2024-03-29T12:07:54;94757.69;;;19.30;nan
86173;BME280;76822;46.880;8.642;2024-03-29T12:11:15;94749.31;;;19.43;nan
86173;BME280;76822;46.880;8.642;2024-03-29T12:14:35;94771.22;;;19.26;nan
86173;BME280;76822;46.880;8.642;2024-03-29T12:17:58;94742.06;;;19.64;nan
86173;BME280;76822;46.880;8.642;2024-03-29T12:21:19;94735.16;;;18.89;nan
86173;BME280;76822;46.880;8.642;2024-03-29T12:24:40;94804.66;;;19.40;nan
86173;BME280;76822;46.880;8.642;2024-03-29T12:28:00;94755.38;;;20.80;nan
86173;BME280;76822;46.880;8.642;2024-03-29T12:31:21;94810.06;;;20.56;nan
86173;BME280;76822;46.880;8.642;2024-03-29T12:34:42;94742.81;;;21.21;nan
86173;BME280;76822;46.880;8.642;2024-03-29T12:38:04;94805.31;;;20.35;nan
86173;BME280;76822;46.880;8.642;2024-03-29T12:41:24;94716.78;;;19.33;nan
86173;BME280;76822;46.880;8.642;2024-03-29T12:44:45;94808.56;;;19.39;nan
86173;BME280;76822;46.880;8.642;2024-03-29T12:48:14;94721.16;;;20.27;nan
86173;BME280;76822;46.880;8.642;2024-03-29T12:51:34;94753.66;;;19.53;nan
86173;BME280;76822;46.880;8.642;2024-03-29T12:54:56;94727.41;;;19.43;nan
86173;BME280;76822;46.880;8.642;2024-03-29T12:58:17;94765.56;;;19.48;nan
86173;BME280;76822;46.880;8.642;2024-03-29T13:01:40;94834.97;;;19.35;nan
86173;BME280;76822;46.880;8.642;2024-03-29T13:05:03;94734.19;;;19.37;nan
86173;BME280;76822;46.880;8.642;2024-03-29T13:08:24;94866.13;;;18.43;nan
86173;BME280;76822;46.880;8.642;2024-03-29T13:11:44;94795.72;;;18.48;nan
86173;BME280;76822;46.880;8.642;2024-03-29T13:15:18;94783.56;;;18.15;nan
86173;BME280;76822;46.880;8.642;2024-03-29T13:18:39;94810.31;;;18.04;nan
86173;BME280;76822;46.880;8.642;2024-03-29T13:21:59;94755.72;;;18.04;nan
86173;BME280;76822;46.880;8.642;2024-03-29T13:25:20;94755.47;;;17.84;nan
86173;BME280;76822;46.880;8.642;2024-03-29T13:28:40;94822.88;;;18.05;nan
86173;BME280;76822;46.880;8.642;2024-03-29T13:32:01;94813.03;;;17.96;nan
86173;BME280;76822;46.880;8.642;2024-03-29T13:35:21;94797.72;;;18.17;nan
86173;BME280;76822;46.880;8.642;2024-03-29T13:38:42;94826.53;;;18.32;nan
86173;BME280;76822;46.880;8.642;2024-03-29T13:42:02;94812.75;;;18.06;nan
86173;BME280;76822;46.880;8.642;2024-03-29T13:45:23;94815.78;;;18.04;nan
86173;BME280;76822;46.880;8.642;2024-03-29T13:48:46;94768.84;;;18.33;nan
86173;BME280;76822;46.880;8.642;2024-03-29T13:52:07;94763.66;;;18.23;nan
86173;BME280;76822;46.880;8.642;2024-03-29T13:55:27;94817.56;;;18.48;nan
86173;BME280;76822;46.880;8.642;2024-03-29T13:58:48;94803.69;;;18.28;nan
86173;BME280;76822;46.880;8.642;2024-03-29T14:02:08;94779.28;;;18.40;nan
86173;BME280;76822;46.880;8.642;2024-03-29T14:05:28;94773.91;;;18.57;nan
86173;BME280;76822;46.880;8.642;2024-03-29T14:08:49;94776.53;;;18.88;nan
86173;BME280;76822;46.880;8.642;2024-03-29T14:12:10;94808.41;;;18.44;nan
86173;BME280;76822;46.880;8.642;2024-03-29T14:15:30;94764.44;;;18.89;nan
86173;BME280;76822;46.880;8.642;2024-03-29T14:18:50;94837.75;;;18.61;nan
86173;BME280;76822;46.880;8.642;2024-03-29T14:22:11;94798.44;;;18.48;nan
86173;BME280;76822;46.880;8.642;2024-03-29T14:25:36;94731.56;;;18.54;nan
86173;BME280;76822;46.880;8.642;2024-03-29T14:28:57;94785.53;;;18.71;nan
86173;BME280;76822;46.880;8.642;2024-03-29T14:32:20;94720.22;;;18.78;nan
86173;BME280;76822;46.880;8.642;2024-03-29T14:35:40;94774.22;;;18.64;nan
86173;BME280;76822;46.880;8.642;2024-03-29T14:39:01;94784.75;;;18.40;nan
86173;BME280;76822;46.880;8.642;2024-03-29T14:42:22;94721.66;;;18.59;nan
86173;BME280;76822;46.880;8.642;2024-03-29T14:45:43;94751.91;;;18.88;nan
86173;BME280;76822;46.880;8.642;2024-03-29T14:49:03;94770.81;;;18.50;nan
86173;BME280;76822;46.880;8.642;2024-03-29T14:52:27;94782.47;;;18.81;nan
86173;BME280;76822;46.880;8.642;2024-03-29T14:55:47;94777.16;;;18.76;nan
86173;BME280;76822;46.880;8.642;2024-03-29T14:59:07;94740.06;;;18.36;nan
86173;BME280;76822;46.880;8.642;2024-03-29T15:02:32;94796.78;;;18.70;nan
86173;BME280;76822;46.880;8.642;2024-03-29T15:05:53;94722.91;;;18.52;nan
86173;BME280;76822;46.880;8.642;2024-03-29T15:09:13;94736.63;;;18.78;nan
86173;BME280;76822;46.880;8.642;2024-03-29T15:12:33;94786.81;;;18.82;nan
86173;BME280;76822;46.880;8.642;2024-03-29T15:15:58;94741.91;;;18.66;nan
86173;BME280;76822;46.880;8.642;2024-03-29T15:19:19;94775.16;;;18.51;nan
86173;BME280;76822;46.880;8.642;2024-03-29T15:22:41;94748.06;;;18.24;nan
86173;BME280;76822;46.880;8.642;2024-03-29T15:26:04;94753.41;;;18.29;nan
86173;BME280;76822;46.880;8.642;2024-03-29T15:29:25;94729.63;;;18.38;nan
86173;BME280;76822;46.880;8.642;2024-03-29T15:32:45;94733.19;;;18.56;nan
86173;BME280;76822;46.880;8.642;2024-03-29T15:36:06;94717.31;;;18.66;nan
86173;BME280;76822;46.880;8.642;2024-03-29T15:39:27;94713.28;;;18.89;nan
86173;BME280;76822;46.880;8.642;2024-03-29T15:42:47;94690.78;;;18.58;nan
86173;BME280;76822;46.880;8.642;2024-03-29T15:46:08;94727.91;;;18.59;nan
86173;BME280;76822;46.880;8.642;2024-03-29T15:49:31;94716.19;;;18.67;nan
86173;BME280;76822;46.880;8.642;2024-03-29T15:52:52;94733.88;;;18.61;nan
86173;BME280;76822;46.880;8.642;2024-03-29T15:56:12;94705.03;;;18.55;nan
86173;BME280;76822;46.880;8.642;2024-03-29T15:59:32;94764.53;;;18.49;nan
86173;BME280;76822;46.880;8.642;2024-03-29T16:02:53;94717.88;;;18.29;nan
86173;BME280;76822;46.880;8.642;2024-03-29T16:06:14;94728.13;;;18.14;nan
86173;BME280;76822;46.880;8.642;2024-03-29T16:09:35;94729.88;;;18.10;nan
86173;BME280;76822;46.880;8.642;2024-03-29T16:12:55;94675.25;;;18.10;nan
86173;BME280;76822;46.880;8.642;2024-03-29T16:16:18;94730.75;;;18.37;nan
86173;BME280;76822;46.880;8.642;2024-03-29T16:19:39;94668.06;;;18.32;nan
86173;BME280;76822;46.880;8.642;2024-03-29T16:22:59;94691.53;;;18.33;nan
86173;BME280;76822;46.880;8.642;2024-03-29T16:26:19;94759.28;;;18.13;nan
86173;BME280;76822;46.880;8.642;2024-03-29T16:29:40;94699.19;;;18.13;nan
86173;BME280;76822;46.880;8.642;2024-03-29T16:33:00;94727.22;;;18.36;nan
86173;BME280;76822;46.880;8.642;2024-03-29T16:36:20;94729.72;;;18.15;nan
86173;BME280;76822;46.880;8.642;2024-03-29T16:39:41;94725.00;;;17.99;nan
86173;BME280;76822;46.880;8.642;2024-03-29T16:43:03;94705.25;;;17.93;nan
86173;BME280;76822;46.880;8.642;2024-03-29T16:46:24;94737.91;;;17.67;nan
86173;BME280;76822;46.880;8.642;2024-03-29T16:49:44;94715.75;;;17.69;nan
86173;BME280;76822;46.880;8.642;2024-03-29T16:53:05;94757.34;;;17.44;nan
86173;BME280;76822;46.880;8.642;2024-03-29T16:56:25;94715.38;;;17.62;nan
86173;BME280;76822;46.880;8.642;2024-03-29T16:59:46;94714.59;;;17.39;nan
86173;BME280;76822;46.880;8.642;2024-03-29T17:03:08;94723.59;;;17.39;nan
86173;BME280;76822;46.880;8.642;2024-03-29T17:06:29;94713.19;;;17.42;nan
86173;BME280;76822;46.880;8.642;2024-03-29T17:09:53;94755.84;;;17.15;nan
86173;BME280;76822;46.880;8.642;2024-03-29T17:13:13;94747.88;;;17.27;nan
86173;BME280;76822;46.880;8.642;2024-03-29T17:16:34;94722.38;;;17.23;nan
86173;BME280;76822;46.880;8.642;2024-03-29T17:19:56;94690.69;;;17.67;nan
86173;BME280;76822;46.880;8.642;2024-03-29T17:23:17;94663.91;;;17.47;nan
86173;BME280;76822;46.880;8.642;2024-03-29T17:26:37;94639.28;;;17.29;nan
86173;BME280;76822;46.880;8.642;2024-03-29T17:29:57;94720.84;;;17.62;nan
86173;BME280;76822;46.880;8.642;2024-03-29T17:33:18;94696.16;;;17.45;nan
86173;BME280;76822;46.880;8.642;2024-03-29T17:36:39;94670.41;;;18.07;nan
86173;BME280;76822;46.880;8.642;2024-03-29T17:40:00;94669.28;;;18.00;nan
86173;BME280;76822;46.880;8.642;2024-03-29T17:43:20;94714.00;;;17.73;nan
86173;BME280;76822;46.880;8.642;2024-03-29T17:46:41;94682.94;;;17.60;nan
86173;BME280;76822;46.880;8.642;2024-03-29T17:50:02;94761.09;;;17.56;nan
86173;BME280;76822;46.880;8.642;2024-03-29T17:53:23;94635.94;;;17.32;nan
86173;BME280;76822;46.880;8.642;2024-03-29T17:56:44;94701.41;;;17.32;nan
86173;BME280;76822;46.880;8.642;2024-03-29T18:00:05;94716.97;;;17.32;nan
86173;BME280;76822;46.880;8.642;2024-03-29T18:03:31;94715.00;;;17.24;nan
86173;BME280;76822;46.880;8.642;2024-03-29T18:06:52;94742.19;;;17.37;nan
86173;BME280;76822;46.880;8.642;2024-03-29T18:10:12;94729.13;;;17.57;nan
86173;BME280;76822;46.880;8.642;2024-03-29T18:13:33;94685.56;;;16.68;nan
86173;BME280;76822;46.880;8.642;2024-03-29T18:16:56;94799.63;;;16.19;nan
86173;BME280;76822;46.880;8.642;2024-03-29T18:20:16;94692.38;;;16.07;nan
86173;BME280;76822;46.880;8.642;2024-03-29T18:23:37;94764.72;;;16.35;nan
86173;BME280;76822;46.880;8.642;2024-03-29T18:26:57;94663.94;;;15.85;nan
86173;BME280;76822;46.880;8.642;2024-03-29T18:30:17;94746.94;;;16.65;nan
86173;BME280;76822;46.880;8.642;2024-03-29T18:33:38;94855.13;;;16.37;nan
86173;BME280;76822;46.880;8.642;2024-03-29T18:36:58;94770.47;;;16.34;nan
86173;BME280;76822;46.880;8.642;2024-03-29T18:40:19;94797.50;;;16.44;nan
86173;BME280;76822;46.880;8.642;2024-03-29T18:43:39;94772.50;;;16.28;nan
86173;BME280;76822;46.880;8.642;2024-03-29T18:47:01;94768.88;;;15.64;nan
86173;BME280;76822;46.880;8.642;2024-03-29T18:50:22;94768.25;;;15.67;nan
86173;BME280;76822;46.880;8.642;2024-03-29T18:53:42;94727.63;;;16.12;nan
86173;BME280;76822;46.880;8.642;2024-03-29T18:57:04;94751.66;;;15.96;nan
86173;BME280;76822;46.880;8.642;2024-03-29T19:00:25;94740.97;;;15.72;nan
86173;BME280;76822;46.880;8.642;2024-03-29T19:03:46;94724.00;;;15.75;nan
86173;BME280;76822;46.880;8.642;2024-03-29T19:07:08;94706.19;;;15.97;nan
86173;BME280;76822;46.880;8.642;2024-03-29T19:10:28;94724.41;;;15.82;nan